Time;durP1;ratioP1;P1;durP2;ratioP2;P2;SDS_P1;SDS_P2;PMS_P1;PMS_P2;Temp;Humidity;BMP_temperature;BMP_pressure;BME280_temperature;BME280_humidity;BME280_pressure;Samples;Min_cycle;Max_cycle;Signal;HPM_P1;HPM_P2
2021/12/04 00:01:55;;;;;;;2.65;1.40;;;;;;;;;;5031835;28;20041;-71
2021/12/04 00:04:29;;;;;;;1.33;1.23;;;;;;;;;;5029981;28;20055;-74
2021/12/04 00:06:54;;;;;;;1.67;1.48;;;;;;;;;;5031882;28;20033;-74
2021/12/04 00:09:21;;;;;;;2.13;1.75;;;;;;;;;;5031820;28;20017;-74
2021/12/04 00:11:57;;;;;;;1.55;1.45;;;;;;;;;;5031850;28;20025;-74
2021/12/04 00:14:23;;;;;;;1.98;1.77;;;;;;;;;;5031464;28;20017;-75
2021/12/04 00:16:49;;;;;;;1.83;1.50;;;;;;;;;;5031541;28;20048;-75
2021/12/04 00:19:14;;;;;;;2.10;1.58;;;;;;;;;;5031450;28;20108;-74
2021/12/04 00:21:40;;;;;;;3.63;2.10;;;;;;;;;;5031659;28;20151;-73
2021/12/04 00:24:05;;;;;;;2.75;2.00;;;;;;;;;;5031163;28;20034;-73
2021/12/04 00:26:31;;;;;;;3.88;2.65;;;;;;;;;;5031422;28;20351;-73
2021/12/04 00:28:56;;;;;;;2.45;1.95;;;;;;;;;;5031330;28;20057;-73
2021/12/04 00:31:22;;;;;;;3.33;2.22;;;;;;;;;;5031394;28;20029;-72
2021/12/04 00:33:48;;;;;;;2.88;2.45;;;;;;;;;;5031390;28;20017;-72
2021/12/04 00:50:14;;;;;;;5.80;3.20;;;;;;;;;;5030803;28;20045;-71
2021/12/04 00:52:39;;;;;;;4.60;3.47;;;;;;;;;;5031077;28;20034;-71
2021/12/04 00:55:05;;;;;;;3.90;2.65;;;;;;;;;;5030685;28;20025;-71
2021/12/04 00:57:30;;;;;;;2.05;1.85;;;;;;;;;;5031079;28;20422;-71
2021/12/04 00:59:56;;;;;;;3.47;2.13;;;;;;;;;;5030714;28;20026;-71
2021/12/04 01:02:21;;;;;;;3.58;2.38;;;;;;;;;;5030827;28;20025;-71
2021/12/04 01:04:47;;;;;;;4.53;2.20;;;;;;;;;;5030367;28;20491;-70
2021/12/04 01:07:13;;;;;;;2.55;2.10;;;;;;;;;;5030643;28;20072;-71
2021/12/04 01:09:39;;;;;;;3.50;1.80;;;;;;;;;;5030120;28;20026;-71
2021/12/04 01:12:04;;;;;;;2.08;1.55;;;;;;;;;;5030191;28;20090;-71
2021/12/04 01:14:31;;;;;;;1.70;1.20;;;;;;;;;;5030232;28;20026;-71
2021/12/04 01:16:57;;;;;;;1.30;1.20;;;;;;;;;;5030520;28;20025;-71
2021/12/04 01:19:22;;;;;;;1.80;1.55;;;;;;;;;;5030257;28;20398;-70
2021/12/04 01:21:49;;;;;;;1.40;1.20;;;;;;;;;;5030415;28;20387;-70
2021/12/04 01:24:14;;;;;;;1.63;0.90;;;;;;;;;;5030151;28;20034;-71
2021/12/04 01:26:40;;;;;;;1.20;1.05;;;;;;;;;;5030580;28;20548;-70
2021/12/04 01:29:05;;;;;;;1.10;1.00;;;;;;;;;;5030684;28;20430;-70
2021/12/04 01:31:31;;;;;;;1.27;1.13;;;;;;;;;;5030556;28;20030;-71
2021/12/04 01:33:56;;;;;;;1.73;1.10;;;;;;;;;;5029938;28;20103;-70
2021/12/04 01:36:21;;;;;;;1.73;1.48;;;;;;;;;;5030082;28;20048;-70
2021/12/04 01:38:47;;;;;;;1.52;1.13;;;;;;;;;;5030308;28;20053;-70
2021/12/04 01:41:12;;;;;;;1.30;1.20;;;;;;;;;;5029950;28;20021;-70
2021/12/04 01:43:37;;;;;;;1.13;1.02;;;;;;;;;;5029930;28;20097;-71
2021/12/04 01:46:03;;;;;;;1.42;1.13;;;;;;;;;;5029848;28;20459;-70
2021/12/04 01:48:28;;;;;;;1.65;1.17;;;;;;;;;;5029901;28;20033;-70
2021/12/04 01:50:55;;;;;;;1.63;1.00;;;;;;;;;;5029686;28;20457;-70
2021/12/04 01:53:20;;;;;;;1.02;0.90;;;;;;;;;;5029840;28;20522;-71
2021/12/04 01:55:45;;;;;;;1.33;0.90;;;;;;;;;;5029826;28;20029;-71
2021/12/04 01:58:11;;;;;;;1.20;1.10;;;;;;;;;;5029796;28;20664;-70
2021/12/04 02:00:37;;;;;;;1.48;1.00;;;;;;;;;;5029715;28;20036;-71
2021/12/04 02:03:04;;;;;;;1.10;0.98;;;;;;;;;;5029555;28;20087;-71
2021/12/04 02:05:30;;;;;;;1.77;1.00;;;;;;;;;;5029611;28;20032;-71
2021/12/04 02:07:55;;;;;;;0.82;0.82;;;;;;;;;;5029807;28;20399;-71
2021/12/04 02:10:20;;;;;;;2.05;1.25;;;;;;;;;;5029546;28;20177;-71
2021/12/04 02:12:47;;;;;;;1.98;1.27;;;;;;;;;;5029678;28;20471;-71
2021/12/04 02:15:13;;;;;;;2.42;1.67;;;;;;;;;;5029362;28;20030;-71
2021/12/04 02:17:39;;;;;;;1.90;1.55;;;;;;;;;;5029490;28;20037;-71
2021/12/04 02:20:12;;;;;;;3.05;1.90;;;;;;;;;;5029446;28;20026;-70
2021/12/04 02:22:37;;;;;;;2.72;2.20;;;;;;;;;;5029456;28;20033;-71
2021/12/04 02:25:02;;;;;;;1.90;1.70;;;;;;;;;;5029372;28;20036;-70
2021/12/04 02:27:27;;;;;;;5.07;2.60;;;;;;;;;;5029434;28;20059;-70
2021/12/04 02:29:53;;;;;;;2.88;2.47;;;;;;;;;;5029286;28;20087;-71
2021/12/04 02:32:18;;;;;;;3.13;2.40;;;;;;;;;;5029212;28;20037;-71
2021/12/04 02:34:44;;;;;;;2.95;2.20;;;;;;;;;;5029054;28;20114;-71
2021/12/04 02:37:09;;;;;;;3.08;1.92;;;;;;;;;;5029462;28;20032;-71
2021/12/04 02:39:37;;;;;;;2.75;2.25;;;;;;;;;;5029379;28;20025;-70
2021/12/04 02:42:06;;;;;;;2.97;2.50;;;;;;;;;;5029148;28;20056;-71
2021/12/04 02:44:35;;;;;;;2.90;1.85;;;;;;;;;;5029090;28;20017;-70
2021/12/04 02:47:00;;;;;;;2.70;2.00;;;;;;;;;;5029106;28;20033;-71
2021/12/04 02:49:26;;;;;;;3.00;2.10;;;;;;;;;;5029505;28;20037;-70
2021/12/04 02:51:51;;;;;;;2.22;1.88;;;;;;;;;;5029129;28;20040;-70
2021/12/04 02:54:16;;;;;;;2.47;1.48;;;;;;;;;;5028978;28;20103;-70
2021/12/04 02:56:46;;;;;;;2.75;1.60;;;;;;;;;;5029080;28;20471;-70
2021/12/04 02:59:12;;;;;;;2.03;1.63;;;;;;;;;;5029735;28;20147;-70
2021/12/04 03:01:39;;;;;;;2.13;1.50;;;;;;;;;;5029268;28;20025;-70
2021/12/04 03:04:07;;;;;;;2.45;1.58;;;;;;;;;;5029047;28;20041;-70
2021/12/04 03:06:41;;;;;;;2.80;1.60;;;;;;;;;;5027626;28;20029;-71
2021/12/04 03:09:07;;;;;;;1.73;1.40;;;;;;;;;;5029231;28;20033;-70
2021/12/04 03:11:32;;;;;;;2.00;1.40;;;;;;;;;;5028995;28;20368;-71
2021/12/04 03:13:58;;;;;;;3.72;1.80;;;;;;;;;;5028902;28;20043;-70
2021/12/04 03:16:24;;;;;;;1.70;1.50;;;;;;;;;;5029202;28;20445;-71
2021/12/04 03:18:49;;;;;;;2.20;2.00;;;;;;;;;;5028957;28;20026;-71
2021/12/04 03:21:15;;;;;;;2.00;1.80;;;;;;;;;;5028883;28;20022;-70
2021/12/04 03:23:52;;;;;;;3.28;2.42;;;;;;;;;;5028806;28;20029;-70
2021/12/04 03:26:17;;;;;;;2.55;1.85;;;;;;;;;;5028725;28;20365;-71
2021/12/04 03:28:42;;;;;;;2.13;1.70;;;;;;;;;;5028794;28;20051;-70
2021/12/04 03:31:19;;;;;;;2.63;1.92;;;;;;;;;;5028731;28;20049;-70
2021/12/04 03:41:56;;;;;;;3.45;1.95;;;;;;;;;;5032240;28;20502;-71
2021/12/04 03:44:21;;;;;;;2.00;1.80;;;;;;;;;;5032034;28;20029;-71
2021/12/04 03:46:48;;;;;;;2.42;1.60;;;;;;;;;;5031906;28;20108;-71
2021/12/04 03:49:14;;;;;;;3.45;1.88;;;;;;;;;;5032274;28;20746;-71
2021/12/04 03:51:39;;;;;;;2.40;2.00;;;;;;;;;;5031966;28;20029;-71
2021/12/04 03:54:05;;;;;;;3.10;2.15;;;;;;;;;;5031849;28;20076;-70
2021/12/04 03:56:32;;;;;;;2.75;1.92;;;;;;;;;;5032023;28;20025;-71
2021/12/04 03:58:57;;;;;;;3.90;2.00;;;;;;;;;;5032058;28;20026;-71
2021/12/04 04:01:22;;;;;;;4.30;1.90;;;;;;;;;;5031818;28;20040;-71
2021/12/04 04:03:48;;;;;;;3.30;1.90;;;;;;;;;;5032159;28;20068;-71
2021/12/04 04:06:14;;;;;;;2.42;1.90;;;;;;;;;;5031634;28;20026;-71
2021/12/04 04:08:39;;;;;;;3.92;2.00;;;;;;;;;;5032192;28;20041;-71
2021/12/04 04:11:05;;;;;;;3.03;2.25;;;;;;;;;;5031818;28;20035;-70
2021/12/04 04:13:30;;;;;;;3.03;2.42;;;;;;;;;;5031955;28;20060;-71
2021/12/04 04:15:58;;;;;;;2.67;2.03;;;;;;;;;;5031609;28;20116;-71
2021/12/04 04:18:23;;;;;;;3.47;2.50;;;;;;;;;;5031598;28;20036;-71
2021/12/04 04:20:48;;;;;;;3.78;2.42;;;;;;;;;;5031434;28;20033;-70
2021/12/04 04:23:14;;;;;;;3.97;2.70;;;;;;;;;;5031402;28;20491;-71
2021/12/04 04:25:39;;;;;;;3.35;2.40;;;;;;;;;;5031510;28;20383;-71
2021/12/04 04:28:05;;;;;;;3.17;2.33;;;;;;;;;;5031553;28;20108;-71
2021/12/04 04:30:31;;;;;;;3.40;2.65;;;;;;;;;;5031453;28;20292;-71
2021/12/04 04:32:56;;;;;;;4.18;2.83;;;;;;;;;;5031640;28;20041;-70
2021/12/04 04:35:25;;;;;;;2.72;2.40;;;;;;;;;;5030973;28;20086;-71
2021/12/04 04:59:37;;;;;;;3.38;2.38;;;;;;;;;;5031139;28;20387;-71
2021/12/04 05:13:00;;;;;;;2.70;2.00;;;;;;;;;;5030423;28;20071;-71
2021/12/04 05:16:11;;;;;;;3.20;2.28;;;;;;;;;;5030755;28;20025;-71
2021/12/04 05:20:54;;;;;;;3.67;2.53;;;;;;;;;;5030629;28;20232;-71
2021/12/04 05:23:20;;;;;;;4.10;2.70;;;;;;;;;;5030002;28;20079;-71
2021/12/04 05:25:46;;;;;;;4.38;2.47;;;;;;;;;;5030530;28;20105;-71
2021/12/04 05:28:11;;;;;;;4.57;2.60;;;;;;;;;;5030080;28;20112;-71
2021/12/04 05:30:37;;;;;;;3.83;2.67;;;;;;;;;;5030360;28;20026;-71
2021/12/04 05:33:03;;;;;;;4.15;3.05;;;;;;;;;;5030146;28;20458;-71
2021/12/04 05:35:28;;;;;;;5.43;2.90;;;;;;;;;;5030140;28;20566;-71
2021/12/04 05:37:54;;;;;;;5.75;2.83;;;;;;;;;;5029912;28;20117;-72
2021/12/04 05:40:20;;;;;;;4.60;2.85;;;;;;;;;;5030144;28;20033;-71
2021/12/04 05:42:46;;;;;;;5.57;3.25;;;;;;;;;;5029958;28;20030;-71
2021/12/04 05:45:18;;;;;;;4.53;2.95;;;;;;;;;;5029759;28;20029;-71
2021/12/04 05:47:50;;;;;;;5.30;3.35;;;;;;;;;;5029769;28;20033;-71
2021/12/04 05:55:18;;;;;;;5.97;3.25;;;;;;;;;;5030213;28;20033;-72
2021/12/04 05:57:44;;;;;;;4.18;2.92;;;;;;;;;;5029203;28;20032;-72
2021/12/04 06:00:19;;;;;;;4.60;2.95;;;;;;;;;;5029848;28;20034;-72
2021/12/04 06:02:45;;;;;;;4.53;3.00;;;;;;;;;;5029567;28;20036;-72
2021/12/04 06:05:11;;;;;;;4.13;3.05;;;;;;;;;;5029763;28;20155;-72
2021/12/04 06:07:36;;;;;;;4.78;3.17;;;;;;;;;;5029594;28;20334;-72
2021/12/04 06:10:03;;;;;;;5.43;3.50;;;;;;;;;;5029686;28;20028;-72
2021/12/04 06:12:28;;;;;;;5.38;3.88;;;;;;;;;;5029570;28;20022;-72
2021/12/04 06:14:54;;;;;;;5.40;3.35;;;;;;;;;;5029470;28;20031;-72
2021/12/04 06:17:20;;;;;;;5.68;3.42;;;;;;;;;;5029278;28;20380;-72
2021/12/04 06:22:37;;;;;;;5.10;3.53;;;;;;;;;;5029495;28;20033;-72
2021/12/04 06:25:05;;;;;;;4.70;3.67;;;;;;;;;;5029297;28;20021;-72
2021/12/04 06:27:30;;;;;;;4.93;3.65;;;;;;;;;;5029246;28;20065;-72
2021/12/04 06:29:55;;;;;;;6.55;4.38;;;;;;;;;;5029330;28;20487;-72
2021/12/04 06:32:21;;;;;;;6.88;4.22;;;;;;;;;;5029520;28;20025;-72
2021/12/04 06:34:46;;;;;;;7.97;3.92;;;;;;;;;;5029230;28;20025;-72
2021/12/04 06:37:11;;;;;;;6.45;4.07;;;;;;;;;;5029329;28;20029;-72
2021/12/04 06:39:36;;;;;;;6.22;4.13;;;;;;;;;;5029126;28;20037;-72
2021/12/04 06:42:02;;;;;;;5.38;4.25;;;;;;;;;;5029184;28;20436;-72
2021/12/04 06:44:27;;;;;;;7.03;4.10;;;;;;;;;;5028754;28;20033;-72
2021/12/04 06:46:54;;;;;;;7.63;4.28;;;;;;;;;;5029068;28;20040;-72
2021/12/04 06:49:27;;;;;;;9.18;5.72;;;;;;;;;;5029028;28;20028;-72
2021/12/04 06:51:56;;;;;;;19.30;10.02;;;;;;;;;;5028547;28;20029;-72
2021/12/04 06:54:26;;;;;;;15.63;9.20;;;;;;;;;;5028346;28;20503;-72
2021/12/04 06:56:51;;;;;;;8.27;6.18;;;;;;;;;;5028456;28;20029;-72
2021/12/04 06:59:28;;;;;;;11.10;6.45;;;;;;;;;;5029348;28;20051;-72
2021/12/04 07:01:54;;;;;;;7.70;5.18;;;;;;;;;;5029152;28;20039;-72
2021/12/04 07:04:20;;;;;;;7.47;4.93;;;;;;;;;;5028657;28;20030;-72
2021/12/04 07:06:48;;;;;;;6.28;4.85;;;;;;;;;;5029137;28;20087;-72
2021/12/04 07:09:14;;;;;;;7.85;5.20;;;;;;;;;;5029562;28;20021;-72
2021/12/04 07:11:39;;;;;;;8.13;5.03;;;;;;;;;;5031707;28;20063;-72
2021/12/04 07:14:05;;;;;;;7.68;5.07;;;;;;;;;;5032564;28;20085;-72
2021/12/04 07:16:30;;;;;;;7.80;4.93;;;;;;;;;;5032804;28;20503;-72
2021/12/04 07:18:55;;;;;;;7.60;4.97;;;;;;;;;;5032633;28;20471;-72
2021/12/04 07:21:22;;;;;;;8.27;5.22;;;;;;;;;;5033161;28;20510;-72
2021/12/04 07:23:47;;;;;;;9.00;6.13;;;;;;;;;;5032080;28;20061;-72
2021/12/04 07:26:13;;;;;;;8.38;5.40;;;;;;;;;;5032507;28;20076;-72
2021/12/04 07:28:38;;;;;;;7.45;4.82;;;;;;;;;;5032375;28;20120;-72
2021/12/04 07:31:06;;;;;;;7.68;4.82;;;;;;;;;;5032510;28;20022;-72
2021/12/04 07:33:31;;;;;;;8.10;4.85;;;;;;;;;;5032338;28;20176;-72
2021/12/04 07:36:00;;;;;;;9.20;5.22;;;;;;;;;;5032597;28;20437;-72
2021/12/04 07:38:26;;;;;;;9.75;7.40;;;;;;;;;;5031150;28;20037;-72
2021/12/04 07:40:51;;;;;;;11.55;8.27;;;;;;;;;;5025074;28;20040;-72
2021/12/04 07:43:17;;;;;;;8.85;6.30;;;;;;;;;;5031989;28;20037;-72
2021/12/04 07:45:42;;;;;;;11.25;7.13;;;;;;;;;;5030993;28;20025;-72
2021/12/04 07:48:08;;;;;;;7.88;6.32;;;;;;;;;;5031036;28;20131;-72
2021/12/04 07:50:35;;;;;;;7.45;5.68;;;;;;;;;;5031458;28;20086;-72
2021/12/04 07:53:00;;;;;;;8.35;5.32;;;;;;;;;;5031830;28;20041;-72
2021/12/04 07:55:26;;;;;;;8.57;5.45;;;;;;;;;;5031657;28;20297;-72
2021/12/04 07:57:52;;;;;;;8.13;5.03;;;;;;;;;;5031803;28;20085;-72
2021/12/04 08:00:19;;;;;;;10.85;5.43;;;;;;;;;;5030610;28;20029;-72
2021/12/04 08:02:45;;;;;;;8.15;4.43;;;;;;;;;;5030568;28;20479;-72
2021/12/04 08:05:11;;;;;;;6.28;4.22;;;;;;;;;;5031421;28;20100;-72
2021/12/04 08:07:38;;;;;;;8.93;4.47;;;;;;;;;;5031757;28;20475;-72
2021/12/04 08:10:06;;;;;;;8.85;4.95;;;;;;;;;;5031768;28;20472;-72
2021/12/04 08:12:31;;;;;;;7.88;4.80;;;;;;;;;;5031886;28;20025;-72
2021/12/04 08:14:56;;;;;;;10.43;5.88;;;;;;;;;;5031727;28;20456;-72
2021/12/04 08:17:22;;;;;;;9.45;4.70;;;;;;;;;;5031609;28;20116;-72
2021/12/04 08:19:47;;;;;;;8.82;5.18;;;;;;;;;;5030904;28;20021;-72
2021/12/04 08:22:13;;;;;;;13.13;6.78;;;;;;;;;;5031702;28;20025;-72
2021/12/04 08:24:40;;;;;;;13.02;7.03;;;;;;;;;;5031134;28;20022;-72
2021/12/04 08:27:08;;;;;;;12.35;6.43;;;;;;;;;;5031435;28;20026;-72
2021/12/04 08:29:33;;;;;;;10.73;5.63;;;;;;;;;;5031513;28;20486;-72
2021/12/04 08:31:59;;;;;;;11.35;5.70;;;;;;;;;;5031715;28;20091;-72
2021/12/04 08:34:24;;;;;;;14.88;8.02;;;;;;;;;;5029485;28;20124;-72
2021/12/04 08:36:51;;;;;;;20.92;10.02;;;;;;;;;;5031369;28;20172;-72
2021/12/04 08:39:17;;;;;;;19.27;9.73;;;;;;;;;;5029750;28;20026;-72
2021/12/04 08:41:42;;;;;;;13.02;6.88;;;;;;;;;;5031535;28;20025;-72
2021/12/04 08:44:08;;;;;;;13.80;7.45;;;;;;;;;;5030877;28;20052;-72
2021/12/04 08:46:35;;;;;;;15.82;10.65;;;;;;;;;;5031151;28;20133;-72
2021/12/04 08:49:00;;;;;;;10.27;6.70;;;;;;;;;;5030981;28;20025;-72
2021/12/04 08:51:26;;;;;;;11.82;6.93;;;;;;;;;;5030959;28;20028;-72
2021/12/04 08:53:52;;;;;;;10.30;6.40;;;;;;;;;;5030572;28;20395;-72
2021/12/04 08:56:18;;;;;;;10.65;5.50;;;;;;;;;;5030916;28;20021;-72
2021/12/04 08:58:44;;;;;;;13.13;5.70;;;;;;;;;;5031039;28;20033;-72
2021/12/04 09:01:14;;;;;;;9.43;5.32;;;;;;;;;;5030776;28;20068;-72
2021/12/04 09:03:44;;;;;;;9.85;6.00;;;;;;;;;;5030430;28;20403;-72
2021/12/04 09:06:10;;;;;;;9.20;5.95;;;;;;;;;;5030251;28;20464;-72
2021/12/04 09:08:37;;;;;;;12.50;6.97;;;;;;;;;;5030584;28;20450;-72
2021/12/04 09:11:12;;;;;;;12.13;6.47;;;;;;;;;;5030824;28;20114;-72
2021/12/04 09:13:40;;;;;;;9.23;5.60;;;;;;;;;;5030396;28;20262;-73
2021/12/04 09:16:06;;;;;;;9.80;6.22;;;;;;;;;;5030301;28;20311;-73
2021/12/04 09:18:31;;;;;;;12.35;6.75;;;;;;;;;;5030287;28;20029;-72
2021/12/04 09:20:57;;;;;;;11.15;6.75;;;;;;;;;;5030272;28;20501;-73
2021/12/04 09:23:30;;;;;;;11.80;7.95;;;;;;;;;;5030353;28;20025;-73
2021/12/04 09:26:00;;;;;;;11.98;8.15;;;;;;;;;;5030157;28;20025;-72
2021/12/04 09:28:41;;;;;;;15.20;11.30;;;;;;;;;;5030353;28;20084;-72
2021/12/04 09:36:36;;;;;;;19.73;12.02;;;;;;;;;;5030179;28;20027;-72
2021/12/04 10:01:11;;;;;;;5.20;3.50;;;;;;;;;;5029508;28;20094;-73
2021/12/04 10:06:32;;;;;;;11.10;6.25;;;;;;;;;;5029193;28;20080;-72
2021/12/04 10:12:20;;;;;;;5.53;3.55;;;;;;;;;;5029601;28;19920;-72
2021/12/04 10:33:55;;;;;;;9.65;5.95;;;;;;;;;;5017309;28;20041;-73
2021/12/04 10:36:33;;;;;;;10.45;5.68;;;;;;;;;;5044370;22;20029;-72
2021/12/04 10:39:00;;;;;;;8.32;5.55;;;;;;;;;;5029184;28;20233;-73
2021/12/04 10:41:32;;;;;;;10.93;5.97;;;;;;;;;;5028836;28;20112;-73
2021/12/04 10:44:19;;;;;;;11.47;7.67;;;;;;;;;;5031445;28;20022;-73
2021/12/04 10:47:10;;;;;;;11.65;7.07;;;;;;;;;;5033063;28;20029;-73
2021/12/04 10:52:24;;;;;;;9.93;5.90;;;;;;;;;;5033805;28;20394;-71
2021/12/04 10:54:53;;;;;;;11.18;6.55;;;;;;;;;;5033015;28;20022;-72
2021/12/04 10:58:03;;;;;;;11.75;6.97;;;;;;;;;;5033197;28;20039;-72
2021/12/04 11:00:38;;;;;;;9.65;5.85;;;;;;;;;;5033384;28;20102;-69
2021/12/04 11:20:30;;;;;;;12.45;7.40;;;;;;;;;;5013163;28;20290;-70
2021/12/04 11:23:21;;;;;;;11.95;6.47;;;;;;;;;;5012830;28;20431;-70
2021/12/04 11:39:54;;;;;;;12.90;5.63;;;;;;;;;;5012903;28;20073;-68
2021/12/04 11:44:10;;;;;;;8.52;5.80;;;;;;;;;;5012361;28;20475;-68
2021/12/04 11:46:53;;;;;;;9.70;5.40;;;;;;;;;;5012357;28;20488;-68
2021/12/04 11:49:22;;;;;;;7.80;5.30;;;;;;;;;;5012508;28;20068;-68
2021/12/04 11:51:57;;;;;;;7.88;5.10;;;;;;;;;;5012376;28;20475;-68
2021/12/04 11:54:30;;;;;;;8.98;5.60;;;;;;;;;;5011374;28;20025;-68
2021/12/04 11:57:08;;;;;;;9.30;5.68;;;;;;;;;;5012143;28;20022;-68
2021/12/04 11:59:36;;;;;;;7.47;5.63;;;;;;;;;;5012464;28;20029;-68
2021/12/04 12:02:04;;;;;;;11.27;6.05;;;;;;;;;;5012344;28;20029;-68
2021/12/04 12:04:39;;;;;;;8.10;5.28;;;;;;;;;;5011942;28;20017;-67
2021/12/04 12:07:12;;;;;;;7.43;5.07;;;;;;;;;;5012018;28;20034;-67
2021/12/04 12:09:39;;;;;;;10.38;6.15;;;;;;;;;;5012293;28;20034;-67
2021/12/04 12:12:07;;;;;;;11.98;6.78;;;;;;;;;;5012013;28;20391;-67
2021/12/04 12:14:40;;;;;;;10.82;7.13;;;;;;;;;;5011841;28;20392;-67
2021/12/04 12:17:07;;;;;;;13.35;7.57;;;;;;;;;;5011999;28;20089;-67
2021/12/04 12:19:38;;;;;;;12.93;7.15;;;;;;;;;;5011909;28;20038;-67
2021/12/04 12:22:22;;;;;;;17.52;9.25;;;;;;;;;;5011493;28;20109;-67
2021/12/04 12:38:16;;;;;;;10.57;6.55;;;;;;;;;;5011596;28;20040;-68
2021/12/04 12:40:42;;;;;;;14.10;7.35;;;;;;;;;;5011388;28;20403;-68
2021/12/04 12:43:12;;;;;;;13.20;7.53;;;;;;;;;;5011454;28;20041;-68
2021/12/04 12:45:38;;;;;;;16.02;7.13;;;;;;;;;;5011513;28;20395;-68
2021/12/04 12:48:06;;;;;;;10.43;6.05;;;;;;;;;;5011516;28;20029;-68
2021/12/04 12:50:34;;;;;;;11.73;6.45;;;;;;;;;;5011478;28;20034;-68
2021/12/04 12:53:27;;;;;;;13.60;7.15;;;;;;;;;;5011401;28;20025;-68
2021/12/04 12:56:05;;;;;;;11.60;6.22;;;;;;;;;;5011660;28;20030;-68
2021/12/04 12:58:41;;;;;;;11.52;5.90;;;;;;;;;;5011134;28;20034;-68
2021/12/04 13:12:53;;;;;;;12.85;7.85;;;;;;;;;;5010986;28;20061;-68
2021/12/04 13:15:34;;;;;;;12.82;6.82;;;;;;;;;;5010900;28;20045;-68
2021/12/04 13:18:09;;;;;;;12.82;7.30;;;;;;;;;;5010572;28;20061;-68
2021/12/04 13:20:35;;;;;;;10.73;7.32;;;;;;;;;;5010938;28;20087;-68
2021/12/04 13:23:08;;;;;;;12.80;7.22;;;;;;;;;;5010684;28;20033;-68
2021/12/04 13:25:34;;;;;;;11.77;7.97;;;;;;;;;;5010652;28;20036;-68
2021/12/04 13:30:24;;;;;;;11.32;7.50;;;;;;;;;;5011017;28;20029;-68
2021/12/04 13:32:51;;;;;;;11.38;7.57;;;;;;;;;;5010351;28;20042;-68
2021/12/04 13:35:21;;;;;;;31.73;18.83;;;;;;;;;;5010376;28;20041;-68
2021/12/04 13:37:48;;;;;;;12.68;7.45;;;;;;;;;;5010342;28;20052;-68
2021/12/04 13:40:17;;;;;;;10.00;6.22;;;;;;;;;;5010624;28;20079;-68
2021/12/04 13:42:44;;;;;;;35.58;19.70;;;;;;;;;;5010981;28;20087;-68
2021/12/04 13:45:13;;;;;;;24.85;14.75;;;;;;;;;;5011268;28;20438;-68
2021/12/04 13:47:39;;;;;;;31.88;20.48;;;;;;;;;;5011788;28;20130;-67
2021/12/04 13:50:20;;;;;;;40.40;21.67;;;;;;;;;;5011356;28;20583;-68
2021/12/04 13:52:46;;;;;;;20.88;13.43;;;;;;;;;;5029237;28;20449;-68
2021/12/04 13:55:14;;;;;;;21.77;13.30;;;;;;;;;;5029947;28;20033;-67
2021/12/04 13:57:43;;;;;;;12.63;7.82;;;;;;;;;;5029728;28;20040;-68
2021/12/04 14:00:11;;;;;;;12.23;8.45;;;;;;;;;;5029855;28;20033;-68
2021/12/04 14:02:36;;;;;;;12.70;7.07;;;;;;;;;;5029904;28;20156;-68
2021/12/04 14:05:08;;;;;;;15.45;8.35;;;;;;;;;;5035834;28;20116;-67
2021/12/04 14:07:35;;;;;;;9.43;5.93;;;;;;;;;;5049447;28;20040;-68
2021/12/04 14:10:15;;;;;;;9.95;7.10;;;;;;;;;;5049691;28;20171;-68
2021/12/04 14:12:41;;;;;;;6.75;4.63;;;;;;;;;;5046719;28;20039;-68
2021/12/04 14:15:12;;;;;;;7.38;5.32;;;;;;;;;;5049433;28;20425;-68
2021/12/04 14:17:37;;;;;;;9.10;5.63;;;;;;;;;;5048579;28;20025;-68
2021/12/04 14:20:05;;;;;;;13.43;6.38;;;;;;;;;;5049243;28;20039;-69
2021/12/04 14:22:30;;;;;;;9.68;7.75;;;;;;;;;;5049305;28;20016;-68
2021/12/04 14:25:01;;;;;;;11.23;9.02;;;;;;;;;;5049066;28;20489;-68
2021/12/04 14:27:34;;;;;;;9.23;4.93;;;;;;;;;;5049284;28;20029;-69
2021/12/04 14:30:16;;;;;;;7.47;5.10;;;;;;;;;;5049102;28;20036;-69
2021/12/04 14:32:45;;;;;;;10.82;6.63;;;;;;;;;;5049177;28;20090;-69
2021/12/04 14:35:16;;;;;;;11.73;7.72;;;;;;;;;;5039912;28;20328;-69
2021/12/04 14:37:44;;;;;;;13.48;8.23;;;;;;;;;;5048863;28;20025;-69
2021/12/04 14:40:13;;;;;;;11.07;6.55;;;;;;;;;;5049044;28;20032;-69
2021/12/04 14:42:39;;;;;;;9.98;6.50;;;;;;;;;;5049119;28;20021;-69
2021/12/04 14:45:11;;;;;;;40.10;22.33;;;;;;;;;;5048715;28;20419;-69
2021/12/04 14:47:46;;;;;;;13.25;8.55;;;;;;;;;;5048907;28;20033;-69
2021/12/04 14:50:14;;;;;;;17.90;10.70;;;;;;;;;;5048964;28;20394;-69
2021/12/04 14:52:41;;;;;;;15.77;11.70;;;;;;;;;;5041778;28;20048;-69
2021/12/04 14:55:17;;;;;;;101.95;51.08;;;;;;;;;;5046635;28;20037;-69
2021/12/04 14:57:43;;;;;;;36.10;19.92;;;;;;;;;;5048723;28;20021;-69
2021/12/04 15:00:13;;;;;;;16.58;10.27;;;;;;;;;;5048683;28;20072;-69
2021/12/04 15:02:39;;;;;;;13.35;8.50;;;;;;;;;;5048918;28;20033;-69
2021/12/04 15:05:06;;;;;;;9.52;6.47;;;;;;;;;;5048666;28;20017;-69
2021/12/04 15:07:33;;;;;;;11.95;8.68;;;;;;;;;;5042873;28;20059;-69
2021/12/04 15:10:25;;;;;;;7.93;5.07;;;;;;;;;;5048648;28;20454;-69
2021/12/04 15:12:51;;;;;;;4.43;3.20;;;;;;;;;;5045573;28;20043;-69
2021/12/04 15:15:19;;;;;;;5.68;3.60;;;;;;;;;;5048507;28;20029;-69
2021/12/04 15:17:53;;;;;;;10.15;5.35;;;;;;;;;;5048874;28;20107;-69
2021/12/04 15:20:27;;;;;;;12.70;6.68;;;;;;;;;;5048666;28;20109;-69
2021/12/04 15:22:57;;;;;;;9.77;5.32;;;;;;;;;;5049170;28;20100;-69
2021/12/04 15:25:25;;;;;;;6.13;4.28;;;;;;;;;;5048401;28;20502;-69
2021/12/04 15:27:50;;;;;;;3.97;2.75;;;;;;;;;;5049280;28;20056;-69
2021/12/04 15:30:18;;;;;;;5.75;3.72;;;;;;;;;;5050748;28;20479;-69
2021/12/04 15:32:45;;;;;;;5.07;3.30;;;;;;;;;;5052647;28;20028;-69
2021/12/04 15:35:39;;;;;;;3.53;2.90;;;;;;;;;;5051863;28;20074;-69
2021/12/04 15:38:16;;;;;;;2.80;1.38;;;;;;;;;;5052343;28;20132;-69
2021/12/04 15:40:56;;;;;;;4.20;2.83;;;;;;;;;;5052240;28;20045;-69
2021/12/04 15:46:24;;;;;;;2.83;1.95;;;;;;;;;;5052420;28;20109;-70
2021/12/04 15:54:26;;;;;;;2.28;1.40;;;;;;;;;;5052123;28;20295;-70
2021/12/04 15:56:55;;;;;;;2.25;1.20;;;;;;;;;;5051906;28;20422;-69
2021/12/04 15:59:24;;;;;;;1.65;1.13;;;;;;;;;;5049217;28;20454;-69
2021/12/04 16:01:55;;;;;;;1.27;1.05;;;;;;;;;;5038929;28;20037;-70
2021/12/04 16:04:30;;;;;;;5.38;1.10;;;;;;;;;;5033538;28;20487;-70
2021/12/04 16:06:57;;;;;;;1.30;1.20;;;;;;;;;;5031522;28;20053;-70
2021/12/04 16:09:28;;;;;;;1.50;1.40;;;;;;;;;;5031731;28;20025;-70
2021/12/04 16:12:06;;;;;;;2.83;1.92;;;;;;;;;;5032109;28;20083;-70
2021/12/04 16:14:34;;;;;;;2.05;1.30;;;;;;;;;;5031403;28;20057;-69
2021/12/04 16:17:00;;;;;;;1.33;1.05;;;;;;;;;;5031614;28;20095;-70
2021/12/04 16:19:28;;;;;;;1.52;1.35;;;;;;;;;;5031516;28;20056;-70
2021/12/04 16:21:59;;;;;;;2.55;2.40;;;;;;;;;;5032039;28;20035;-70
2021/12/04 16:24:26;;;;;;;1.58;1.48;;;;;;;;;;5031439;28;20103;-70
2021/12/04 16:26:56;;;;;;;1.05;1.00;;;;;;;;;;5034287;28;20470;-70
2021/12/04 16:29:22;;;;;;;4.20;2.63;;;;;;;;;;5031766;28;20607;-70
2021/12/04 16:37:35;;;;;;;3.05;1.83;;;;;;;;;;5036444;28;20044;-70
2021/12/04 16:40:05;;;;;;;1.98;1.73;;;;;;;;;;5044752;28;20385;-70
2021/12/04 16:42:31;;;;;;;2.63;1.90;;;;;;;;;;5051527;28;20029;-70
2021/12/04 16:44:57;;;;;;;1.98;1.70;;;;;;;;;;5044442;28;20024;-70
2021/12/04 16:47:22;;;;;;;1.85;1.65;;;;;;;;;;5038327;28;20432;-70
2021/12/04 16:49:48;;;;;;;1.20;1.10;;;;;;;;;;5040040;28;20028;-70
2021/12/04 17:00:03;;;;;;;1.50;1.30;;;;;;;;;;5011088;28;20076;-70
2021/12/04 17:02:28;;;;;;;1.17;1.08;;;;;;;;;;5007038;28;20435;-70
2021/12/04 17:04:54;;;;;;;1.60;1.40;;;;;;;;;;5010470;28;20113;-71
2021/12/04 17:07:22;;;;;;;2.50;1.60;;;;;;;;;;5010783;28;20021;-70
2021/12/04 17:09:48;;;;;;;2.00;1.80;;;;;;;;;;5010649;28;20450;-70
2021/12/04 17:12:14;;;;;;;2.58;2.00;;;;;;;;;;5010894;28;20029;-71
2021/12/04 17:14:39;;;;;;;1.67;1.40;;;;;;;;;;5007576;28;20036;-72
2021/12/04 17:17:11;;;;;;;1.50;1.40;;;;;;;;;;5011351;28;20407;-70
2021/12/04 17:19:36;;;;;;;3.00;1.90;;;;;;;;;;5010399;28;20030;-71
2021/12/04 17:22:02;;;;;;;2.33;1.40;;;;;;;;;;5010568;28;20030;-70
2021/12/04 17:24:29;;;;;;;2.30;1.52;;;;;;;;;;5009769;28;20503;-71
2021/12/04 17:26:57;;;;;;;2.45;1.70;;;;;;;;;;5009599;28;20045;-72
2021/12/04 17:29:23;;;;;;;1.67;1.42;;;;;;;;;;5010594;28;20029;-71
2021/12/04 17:31:48;;;;;;;1.85;1.40;;;;;;;;;;5010542;28;20026;-70
2021/12/04 17:34:16;;;;;;;1.38;1.17;;;;;;;;;;5010453;28;20491;-71
2021/12/04 17:36:41;;;;;;;1.45;1.23;;;;;;;;;;5010601;28;20029;-71
2021/12/04 17:39:09;;;;;;;3.08;2.25;;;;;;;;;;5010871;28;20022;-71
2021/12/04 17:41:35;;;;;;;2.45;1.70;;;;;;;;;;5010447;28;20026;-70
2021/12/04 17:44:04;;;;;;;2.90;1.70;;;;;;;;;;5010550;28;20077;-71
2021/12/04 17:46:31;;;;;;;2.28;1.38;;;;;;;;;;5010312;28;20215;-71
2021/12/04 17:48:58;;;;;;;1.50;1.38;;;;;;;;;;5010493;28;20032;-71
2021/12/04 17:51:24;;;;;;;2.17;1.50;;;;;;;;;;5010134;28;20523;-70
2021/12/04 17:53:52;;;;;;;2.30;1.67;;;;;;;;;;5009509;28;20033;-70
2021/12/04 17:56:18;;;;;;;3.95;2.30;;;;;;;;;;5010156;28;20018;-71
2021/12/04 17:58:43;;;;;;;2.22;1.90;;;;;;;;;;5010375;28;20563;-71
2021/12/04 18:01:21;;;;;;;2.88;2.00;;;;;;;;;;5009950;28;20084;-71
2021/12/04 18:03:47;;;;;;;3.08;1.90;;;;;;;;;;5010087;28;20033;-71
2021/12/04 18:06:17;;;;;;;3.30;1.85;;;;;;;;;;5010140;28;20022;-70
2021/12/04 18:08:44;;;;;;;5.32;3.25;;;;;;;;;;5010538;28;20047;-70